Time;durP1;ratioP1;P1;durP2;ratioP2;P2;SDS_P1;SDS_P2;PMS_P1;PMS_P2;Temp;Humidity;BMP_temperature;BMP_pressure;BME280_temperature;BME280_humidity;BME280_pressure;Samples;Min_cycle;Max_cycle;Signal;HPM_P1;HPM_P2
2022/04/19 00:01:19;;;;;;;2.75;1.27;;;9.00;69.40;;;;;;5031682;28;20438;-59
2022/04/19 00:03:45;;;;;;;1.77;1.17;;;9.10;69.50;;;;;;5033477;28;20026;-57
2022/04/19 00:06:10;;;;;;;4.22;1.02;;;9.10;69.80;;;;;;5028552;28;20026;-59
2022/04/19 00:08:36;;;;;;;2.63;1.25;;;9.10;68.50;;;;;;5031133;28;20037;-59
2022/04/19 00:11:03;;;;;;;2.45;1.00;;;9.20;68.60;;;;;;5033235;28;20163;-61
2022/04/19 00:13:30;;;;;;;3.38;1.20;;;9.20;68.90;;;;;;5027296;28;20465;-58
2022/04/19 00:15:57;;;;;;;2.42;1.23;;;9.10;70.10;;;;;;5017425;28;20467;-59
2022/04/19 00:18:23;;;;;;;1.85;1.20;;;9.00;69.90;;;;;;5010870;28;20042;-58
2022/04/19 00:20:49;;;;;;;2.47;1.38;;;9.00;70.30;;;;;;5025885;28;20041;-62
2022/04/19 00:23:15;;;;;;;1.95;1.27;;;8.90;69.60;;;;;;5036751;28;20107;-62
2022/04/19 00:25:49;;;;;;;1.80;1.10;;;9.00;68.90;;;;;;5035634;28;20404;-60
2022/04/19 00:28:15;;;;;;;2.72;1.10;;;9.00;69.90;;;;;;5037191;28;20406;-58
2022/04/19 00:30:42;;;;;;;2.92;1.40;;;9.00;69.00;;;;;;5033028;28;20496;-60
2022/04/19 00:33:08;;;;;;;2.85;1.23;;;9.00;69.20;;;;;;5032894;28;20053;-61
2022/04/19 00:35:35;;;;;;;3.72;1.20;;;9.00;69.60;;;;;;5032411;28;20094;-59
2022/04/19 00:38:01;;;;;;;1.95;1.25;;;9.00;70.50;;;;;;5038821;28;20095;-61
2022/04/19 00:40:27;;;;;;;6.53;1.40;;;9.00;69.50;;;;;;5039234;28;20030;-59
2022/04/19 00:42:56;;;;;;;5.85;1.75;;;8.90;69.20;;;;;;5038859;28;20044;-60
2022/04/19 00:45:25;;;;;;;3.10;1.23;;;8.90;69.50;;;;;;5040802;28;20083;-59
2022/04/19 00:47:51;;;;;;;4.85;1.40;;;8.90;70.10;;;;;;5030704;28;20049;-59
2022/04/19 00:50:17;;;;;;;2.38;1.20;;;8.80;71.30;;;;;;5036180;28;20072;-58
2022/04/19 00:52:43;;;;;;;7.70;3.58;;;8.80;70.20;;;;;;5031692;28;20029;-60
2022/04/19 00:55:10;;;;;;;3.53;1.20;;;8.80;70.10;;;;;;5033303;28;20071;-61
2022/04/19 00:57:38;;;;;;;4.60;1.38;;;8.80;70.60;;;;;;5028997;28;20037;-59
2022/04/19 01:00:08;;;;;;;3.55;1.50;;;8.80;70.60;;;;;;5037282;28;20029;-61
2022/04/19 01:02:35;;;;;;;2.83;1.40;;;8.80;71.00;;;;;;5031420;28;20117;-59
2022/04/19 01:05:01;;;;;;;3.03;1.52;;;8.70;71.20;;;;;;5030665;28;20113;-59
2022/04/19 01:07:26;;;;;;;3.85;1.38;;;8.70;70.90;;;;;;5035261;28;20033;-60
2022/04/19 01:09:52;;;;;;;1.20;0.90;;;8.70;70.80;;;;;;5031806;28;20033;-60
2022/04/19 01:15:03;;;;;;;;;;;8.60;70.90;;;;;;5029165;28;20060;-60
2022/04/19 01:17:29;;;;;;;1.63;1.30;;;8.60;70.90;;;;;;5045610;28;20356;-59
2022/04/19 01:19:55;;;;;;;2.67;1.15;;;8.60;70.90;;;;;;5016492;28;20136;-60
2022/04/19 01:22:20;;;;;;;5.40;1.23;;;8.60;70.80;;;;;;5026315;28;20111;-58
2022/04/19 01:24:46;;;;;;;3.20;1.20;;;8.60;71.00;;;;;;5035172;28;20053;-59
2022/04/19 01:27:13;;;;;;;2.33;1.27;;;8.60;71.30;;;;;;5035816;28;20481;-58
2022/04/19 01:29:39;;;;;;;3.10;1.45;;;8.60;71.00;;;;;;5036925;28;20748;-60
2022/04/19 01:32:06;;;;;;;3.85;1.42;;;8.60;70.90;;;;;;5028937;28;20148;-59
2022/04/19 01:34:32;;;;;;;4.28;1.08;;;8.60;71.30;;;;;;5029096;28;20484;-60
2022/04/19 01:36:58;;;;;;;3.20;1.30;;;8.50;71.80;;;;;;5033029;28;20028;-60
2022/04/19 01:42:09;;;;;;;2.78;1.33;;;8.40;72.10;;;;;;5034107;28;20041;-58
2022/04/19 01:44:34;;;;;;;4.72;1.40;;;8.40;72.60;;;;;;5028530;28;20049;-59
2022/04/19 01:47:02;;;;;;;1.95;1.20;;;8.30;73.80;;;;;;5029482;28;20025;-60
2022/04/19 01:49:27;;;;;;;5.05;1.83;;;8.20;73.50;;;;;;5037703;28;20060;-58
2022/04/19 01:51:53;;;;;;;2.30;1.33;;;8.20;74.00;;;;;;5032072;28;20056;-61
2022/04/19 01:54:18;;;;;;;3.60;1.30;;;8.10;74.00;;;;;;5031073;28;20030;-60
2022/04/19 01:56:44;;;;;;;3.00;1.40;;;8.10;74.50;;;;;;5031414;28;20045;-61
2022/04/19 01:59:11;;;;;;;8.27;1.73;;;8.00;74.80;;;;;;5028325;28;20040;-59
2022/04/19 02:01:37;;;;;;;1.98;1.27;;;8.00;74.70;;;;;;5033569;28;20029;-58
2022/04/19 02:04:03;;;;;;;4.65;1.92;;;8.10;74.10;;;;;;5028250;28;20455;-61
2022/04/19 02:06:30;;;;;;;4.53;1.80;;;8.10;73.70;;;;;;5042190;28;20468;-58
2022/04/19 02:08:56;;;;;;;2.10;1.30;;;8.20;73.10;;;;;;5030778;28;20025;-61
2022/04/19 02:11:21;;;;;;;2.67;1.17;;;8.30;73.30;;;;;;5027725;28;20038;-59
2022/04/19 02:13:47;;;;;;;3.78;1.65;;;8.30;73.10;;;;;;5034632;28;20060;-59
2022/04/19 02:16:12;;;;;;;2.35;1.30;;;8.30;72.70;;;;;;5029585;28;20033;-59
2022/04/19 02:18:38;;;;;;;4.38;1.63;;;8.20;73.20;;;;;;5017794;28;20045;-60
2022/04/19 02:21:03;;;;;;;3.50;1.60;;;8.30;73.00;;;;;;5032043;28;20594;-60
2022/04/19 02:23:29;;;;;;;4.30;1.35;;;8.20;73.30;;;;;;5028529;28;20032;-60
2022/04/19 02:25:55;;;;;;;5.45;1.73;;;8.20;73.80;;;;;;5034859;28;20439;-60
2022/04/19 02:28:22;;;;;;;6.15;1.75;;;8.00;75.30;;;;;;5042428;28;20028;-60
2022/04/19 02:30:48;;;;;;;4.18;1.08;;;7.90;76.00;;;;;;5029131;28;20056;-59
2022/04/19 02:33:13;;;;;;;2.90;1.48;;;7.80;76.60;;;;;;5027653;28;20164;-60
2022/04/19 02:35:40;;;;;;;3.72;1.33;;;7.60;77.70;;;;;;5031634;28;20053;-60
2022/04/19 02:38:05;;;;;;;2.60;1.33;;;7.50;80.20;;;;;;5030246;28;20028;-59
2022/04/19 02:40:31;;;;;;;3.35;1.45;;;7.40;80.50;;;;;;5030755;28;20025;-59
2022/04/19 02:42:57;;;;;;;2.35;1.48;;;7.20;82.50;;;;;;5030837;28;20085;-59
2022/04/19 02:45:23;;;;;;;2.95;1.40;;;7.10;83.40;;;;;;5013799;28;20083;-59
2022/04/19 02:48:03;;;;;;;4.20;1.42;;;7.00;84.10;;;;;;5023457;28;20021;-60
2022/04/19 02:50:29;;;;;;;2.92;1.30;;;6.80;85.40;;;;;;5031190;28;20022;-59
2022/04/19 02:52:54;;;;;;;3.70;1.92;;;6.70;88.20;;;;;;5034150;28;20039;-60
2022/04/19 02:55:20;;;;;;;5.72;1.70;;;6.60;89.60;;;;;;5040138;28;20396;-60
2022/04/19 02:57:45;;;;;;;9.93;5.82;;;6.50;90.10;;;;;;5031077;28;20496;-59
2022/04/19 03:00:12;;;;;;;12.23;5.65;;;6.40;90.50;;;;;;5031298;28;20079;-60
2022/04/19 03:02:37;;;;;;;9.95;3.78;;;6.40;90.80;;;;;;5031244;28;20041;-59
2022/04/19 03:05:03;;;;;;;6.32;2.80;;;6.30;91.00;;;;;;5031241;28;20014;-58
2022/04/19 03:07:29;;;;;;;4.45;2.30;;;6.40;91.40;;;;;;5031002;28;20455;-59
2022/04/19 03:09:55;;;;;;;6.90;3.08;;;6.40;91.60;;;;;;5031195;28;20029;-59
2022/04/19 03:12:20;;;;;;;7.68;2.97;;;6.40;91.90;;;;;;5030458;28;20098;-58
2022/04/19 03:14:46;;;;;;;5.32;2.45;;;6.40;92.20;;;;;;5041711;28;20396;-58
2022/04/19 03:17:11;;;;;;;4.88;1.98;;;6.30;92.40;;;;;;5040840;28;20029;-59
2022/04/19 03:19:37;;;;;;;5.20;1.88;;;6.30;92.60;;;;;;5030943;28;20037;-59
2022/04/19 03:22:03;;;;;;;2.97;1.67;;;6.30;92.20;;;;;;5031281;28;20038;-57
2022/04/19 03:29:57;;;;;;;2.30;1.40;;;6.40;91.30;;;;;;5031173;28;20044;-60
2022/04/19 03:32:23;;;;;;;2.60;1.75;;;6.50;90.90;;;;;;5030189;28;20030;-59
2022/04/19 03:34:50;;;;;;;3.22;1.65;;;6.60;90.70;;;;;;5031263;28;20025;-60
2022/04/19 03:37:16;;;;;;;4.78;1.73;;;6.70;90.70;;;;;;5030250;28;20029;-60
2022/04/19 03:39:41;;;;;;;3.20;1.52;;;6.60;90.80;;;;;;5030959;28;20030;-59
2022/04/19 03:42:08;;;;;;;2.40;1.40;;;6.60;90.70;;;;;;5030169;28;20037;-59
2022/04/19 03:44:34;;;;;;;4.18;1.60;;;6.60;90.90;;;;;;5030413;28;20021;-58
2022/04/19 03:47:09;;;;;;;6.95;2.20;;;6.60;91.20;;;;;;5028385;28;20095;-60
2022/04/19 03:49:39;;;;;;;3.03;1.70;;;6.50;91.30;;;;;;5030305;28;20030;-59
2022/04/19 03:52:06;;;;;;;3.13;1.98;;;6.40;91.80;;;;;;5037571;28;20108;-60
2022/04/19 03:54:34;;;;;;;4.18;1.58;;;6.40;92.20;;;;;;5026347;28;20033;-57
2022/04/19 03:57:07;;;;;;;4.22;1.65;;;6.20;92.40;;;;;;5022533;28;20534;-60
2022/04/19 03:59:34;;;;;;;3.10;1.67;;;6.10;93.00;;;;;;5032487;28;20021;-59
2022/04/19 04:01:59;;;;;;;3.63;1.55;;;6.00;93.40;;;;;;5034084;28;20029;-61
2022/04/19 04:04:36;;;;;;;5.03;1.70;;;5.90;94.30;;;;;;5031652;28;20036;-59
2022/04/19 04:07:03;;;;;;;2.88;1.40;;;5.80;94.60;;;;;;5031697;28;20033;-58
2022/04/19 04:09:32;;;;;;;3.35;1.80;;;5.80;94.60;;;;;;5037309;28;20049;-59
2022/04/19 04:12:12;;;;;;;7.45;2.08;;;5.80;94.70;;;;;;5034868;28;20025;-60
2022/04/19 04:14:39;;;;;;;4.97;1.58;;;5.90;94.30;;;;;;5032375;28;20034;-61
2022/04/19 04:17:05;;;;;;;3.15;1.50;;;5.90;94.60;;;;;;5034067;28;20033;-61
2022/04/19 04:19:30;;;;;;;2.88;2.10;;;5.80;94.90;;;;;;5032680;28;20116;-61
2022/04/19 04:21:56;;;;;;;2.83;1.70;;;5.80;95.30;;;;;;5033907;28;20029;-60
2022/04/19 04:24:21;;;;;;;3.42;2.00;;;5.70;95.80;;;;;;5033682;28;20034;-61
2022/04/19 04:26:47;;;;;;;5.38;1.88;;;5.60;96.30;;;;;;5033959;28;20014;-60
2022/04/19 04:29:13;;;;;;;3.45;1.90;;;5.60;96.60;;;;;;5033693;28;20034;-60
2022/04/19 04:31:38;;;;;;;3.50;1.60;;;5.50;96.90;;;;;;5033170;28;20021;-60
2022/04/19 04:34:05;;;;;;;7.00;1.65;;;5.60;96.50;;;;;;5034464;28;20029;-59
2022/04/19 04:36:30;;;;;;;3.67;2.00;;;5.70;96.30;;;;;;5028257;28;20014;-59
2022/04/19 04:38:56;;;;;;;2.90;1.58;;;5.70;96.00;;;;;;5031985;28;20035;-59
2022/04/19 04:41:21;;;;;;;3.20;1.88;;;5.80;96.10;;;;;;5031880;28;20521;-60
2022/04/19 04:43:47;;;;;;;2.15;1.50;;;5.80;96.30;;;;;;5031931;28;20034;-60
2022/04/19 04:51:41;;;;;;;3.08;1.67;;;5.80;96.30;;;;;;5030893;28;20057;-59
2022/04/19 04:54:06;;;;;;;4.97;2.45;;;5.90;96.40;;;;;;5033176;28;20448;-59
2022/04/19 04:56:33;;;;;;;3.55;1.95;;;5.80;96.50;;;;;;5042368;28;20091;-60
2022/04/19 04:58:59;;;;;;;4.45;2.22;;;5.80;97.00;;;;;;5041151;28;20048;-59
2022/04/19 05:01:24;;;;;;;4.38;2.40;;;5.80;97.20;;;;;;5040046;28;20501;-60
2022/04/19 05:03:50;;;;;;;3.47;2.10;;;5.80;97.20;;;;;;5025802;28;20029;-60
2022/04/19 05:06:15;;;;;;;9.82;2.75;;;5.80;97.50;;;;;;5028182;28;20394;-60
2022/04/19 05:08:41;;;;;;;6.68;1.75;;;5.90;97.60;;;;;;5039976;28;20032;-60
2022/04/19 05:11:06;;;;;;;2.85;1.73;;;6.20;97.40;;;;;;5079397;22;20048;-56
2022/04/19 05:13:32;;;;;;;7.20;2.25;;;6.60;96.40;;;;;;5069166;28;20028;-59
2022/04/19 05:16:01;;;;;;;4.88;2.10;;;7.20;94.70;;;;;;5054212;28;20025;-58
2022/04/19 05:18:27;;;;;;;4.57;1.90;;;7.70;93.70;;;;;;5061206;28;20033;-59
2022/04/19 05:20:53;;;;;;;4.40;1.95;;;8.00;92.70;;;;;;5071890;28;20032;-60
2022/04/19 05:23:19;;;;;;;5.68;3.60;;;8.20;92.10;;;;;;5072605;28;20025;-59
2022/04/19 05:25:45;;;;;;;2.75;1.70;;;8.40;91.40;;;;;;5072514;28;20062;-56
2022/04/19 05:28:10;;;;;;;3.50;1.58;;;8.70;90.90;;;;;;5072204;28;20021;-57
2022/04/19 05:30:36;;;;;;;3.10;1.88;;;9.50;88.10;;;;;;5072276;28;20029;-56
2022/04/19 05:33:02;;;;;;;2.80;1.55;;;10.50;84.20;;;;;;5080186;28;20051;-59
2022/04/19 05:35:28;;;;;;;2.92;1.80;;;11.80;79.40;;;;;;5073915;28;20099;-59
2022/04/19 05:37:55;;;;;;;3.55;1.67;;;13.00;73.30;;;;;;5065785;28;20025;-60
2022/04/19 05:40:21;;;;;;;4.45;1.70;;;13.50;72.20;;;;;;5064371;28;20031;-55
2022/04/19 05:42:47;;;;;;;3.72;1.92;;;14.30;69.20;;;;;;5070512;28;20025;-59
2022/04/19 05:45:13;;;;;;;3.47;2.20;;;14.30;66.50;;;;;;5071213;28;20066;-57
2022/04/19 05:47:38;;;;;;;2.83;2.20;;;14.20;67.60;;;;;;5071261;28;20032;-60
2022/04/19 05:50:04;;;;;;;7.15;2.50;;;14.10;67.20;;;;;;5071474;28;20085;-60
2022/04/19 05:52:30;;;;;;;5.30;2.15;;;13.30;68.10;;;;;;5074623;28;20032;-57
2022/04/19 05:54:55;;;;;;;4.88;2.42;;;13.30;68.70;;;;;;5069823;28;20032;-57
2022/04/19 05:57:21;;;;;;;4.68;2.42;;;13.10;69.30;;;;;;5071918;28;20032;-59
2022/04/19 05:59:46;;;;;;;8.63;2.58;;;13.50;68.90;;;;;;5061323;28;20021;-60
2022/04/19 06:04:58;;;;;;;;;;;14.80;66.90;;;;;;5069817;28;20414;-58
2022/04/19 06:07:25;;;;;;;7.03;2.40;;;16.30;61.70;;;;;;5070720;28;19958;-59
2022/04/19 06:09:51;;;;;;;6.80;2.20;;;17.00;59.00;;;;;;5068947;28;20196;-59
2022/04/19 06:12:16;;;;;;;3.80;2.03;;;17.70;58.60;;;;;;5070725;28;20499;-57
2022/04/19 06:14:42;;;;;;;4.32;2.13;;;18.60;57.10;;;;;;5069470;28;20540;-58
2022/04/19 06:17:11;;;;;;;7.47;2.55;;;19.30;56.50;;;;;;5071249;28;20035;-61
2022/04/19 06:19:37;;;;;;;2.85;1.80;;;19.80;55.40;;;;;;5061648;28;20075;-53
2022/04/19 06:22:04;;;;;;;3.60;1.92;;;19.90;55.20;;;;;;5070320;28;20052;-57
2022/04/19 06:24:29;;;;;;;4.47;2.70;;;19.60;56.00;;;;;;5072026;28;20103;-61
2022/04/19 06:26:55;;;;;;;10.45;2.40;;;19.40;56.00;;;;;;5069793;28;20120;-58
2022/04/19 06:29:21;;;;;;;4.03;1.80;;;19.80;55.40;;;;;;5060173;28;20447;-60
2022/04/19 06:31:46;;;;;;;6.75;2.10;;;20.30;55.00;;;;;;5070682;28;20028;-59
2022/04/19 06:34:12;;;;;;;5.00;2.28;;;21.00;53.10;;;;;;5063299;28;20025;-62
2022/04/19 06:36:38;;;;;;;5.47;2.45;;;21.30;52.70;;;;;;5068654;28;20024;-58
2022/04/19 06:39:04;;;;;;;3.00;1.83;;;22.00;51.00;;;;;;5066044;28;20035;-60
2022/04/19 06:41:30;;;;;;;4.07;2.22;;;22.90;49.30;;;;;;5064738;28;20056;-60
2022/04/19 06:43:58;;;;;;;2.80;2.20;;;22.90;48.40;;;;;;5069577;28;20067;-59
2022/04/19 06:46:26;;;;;;;4.60;1.98;;;23.00;47.90;;;;;;5060538;28;20078;-61
2022/04/19 06:48:59;;;;;;;6.20;2.25;;;22.70;48.60;;;;;;5069309;28;20551;-60
2022/04/19 06:51:28;;;;;;;4.93;2.38;;;22.80;49.90;;;;;;5063283;28;20062;-61
2022/04/19 06:53:53;;;;;;;7.88;2.20;;;22.60;52.00;;;;;;5069018;28;20052;-61
2022/04/19 06:56:19;;;;;;;6.88;2.45;;;22.60;51.40;;;;;;5069804;28;20495;-61
2022/04/19 06:58:45;;;;;;;3.53;1.67;;;23.30;52.50;;;;;;5070011;28;20089;-61
2022/04/19 07:01:11;;;;;;;4.50;2.50;;;25.10;50.00;;;;;;5046583;28;20044;-59
2022/04/19 07:03:39;;;;;;;5.35;2.15;;;24.70;50.00;;;;;;5059246;28;20029;-59
2022/04/19 07:06:08;;;;;;;6.00;2.65;;;23.90;50.30;;;;;;5070072;28;20036;-59
2022/04/19 07:08:34;;;;;;;4.55;2.60;;;24.70;50.20;;;;;;5069765;28;20162;-62
2022/04/19 07:11:03;;;;;;;3.17;2.58;;;24.50;50.10;;;;;;5064802;28;20107;-60
2022/04/19 07:13:29;;;;;;;3.83;2.33;;;23.40;51.30;;;;;;5058422;28;20019;-59
2022/04/19 07:15:55;;;;;;;4.65;2.20;;;24.90;48.90;;;;;;5060971;28;20028;-59
2022/04/19 07:18:23;;;;;;;4.78;2.30;;;25.40;47.70;;;;;;5063694;28;20466;-60
2022/04/19 07:29:03;;;;;;;6.28;2.22;;;24.30;48.90;;;;;;5063070;28;20031;-59
2022/04/19 07:31:29;;;;;;;4.00;2.83;;;24.40;46.10;;;;;;5063660;28;20036;-59
2022/04/19 07:33:55;;;;;;;4.10;2.42;;;23.70;47.30;;;;;;5063403;28;20037;-59
2022/04/19 07:36:20;;;;;;;3.30;2.38;;;23.70;46.70;;;;;;5064769;28;20082;-60
2022/04/19 07:38:46;;;;;;;6.82;2.55;;;23.60;48.80;;;;;;5065220;28;20037;-59
2022/04/19 07:41:12;;;;;;;5.22;2.85;;;23.80;46.40;;;;;;5064326;28;20100;-61
2022/04/19 07:43:38;;;;;;;3.92;2.92;;;24.50;43.50;;;;;;5061119;28;20020;-61
2022/04/19 07:46:04;;;;;;;3.78;2.40;;;25.50;43.70;;;;;;5073175;28;20039;-59
2022/04/19 07:48:31;;;;;;;6.07;3.00;;;25.90;43.50;;;;;;5077092;28;20017;-61
2022/04/19 07:50:57;;;;;;;6.43;2.58;;;25.00;44.90;;;;;;5077984;28;20045;-60
2022/04/19 07:53:23;;;;;;;5.60;2.83;;;24.20;44.30;;;;;;5060676;28;20025;-58
2022/04/19 07:55:49;;;;;;;7.63;2.75;;;23.40;44.50;;;;;;5073201;28;20044;-57
2022/04/19 07:58:15;;;;;;;5.03;2.55;;;23.60;45.50;;;;;;5064307;28;20025;-61
2022/04/19 08:00:42;;;;;;;6.60;3.33;;;23.70;46.30;;;;;;5048268;28;20086;-60
2022/04/19 08:03:07;;;;;;;3.70;3.10;;;23.70;44.10;;;;;;5040508;28;20577;-60
2022/04/19 08:05:33;;;;;;;4.57;3.00;;;23.60;45.70;;;;;;5068816;28;20036;-60
2022/04/19 08:07:58;;;;;;;4.13;3.22;;;23.60;44.30;;;;;;5070828;28;20021;-60
2022/04/19 08:10:24;;;;;;;6.55;3.13;;;23.40;43.60;;;;;;5067351;28;20103;-60
2022/04/19 08:12:49;;;;;;;6.35;3.50;;;23.50;45.40;;;;;;5065827;28;20419;-61
2022/04/19 08:15:15;;;;;;;4.78;3.45;;;24.00;43.70;;;;;;5063716;28;20025;-59
2022/04/19 08:17:41;;;;;;;4.57;3.45;;;25.00;43.60;;;;;;5067295;28;20522;-61
2022/04/19 08:20:07;;;;;;;3.15;2.85;;;24.90;42.00;;;;;;5068967;28;20025;-58
2022/04/19 08:22:35;;;;;;;5.07;3.55;;;25.30;41.40;;;;;;5065814;28;20025;-61
2022/04/19 08:25:00;;;;;;;6.38;3.30;;;24.70;42.30;;;;;;5059344;28;20024;-59
2022/04/19 08:27:26;;;;;;;5.45;3.85;;;25.70;42.10;;;;;;5069835;28;20090;-62
2022/04/19 08:29:52;;;;;;;3.85;3.20;;;25.30;41.20;;;;;;5062742;28;20111;-61
2022/04/19 08:32:17;;;;;;;4.35;3.80;;;25.30;41.40;;;;;;5065718;28;20048;-60
2022/04/19 08:34:45;;;;;;;5.90;3.80;;;26.10;40.90;;;;;;5062554;28;20659;-59
2022/04/19 08:37:11;;;;;;;4.45;3.08;;;25.40;41.60;;;;;;5069859;28;20028;-59
2022/04/19 08:39:37;;;;;;;6.43;3.63;;;26.10;41.60;;;;;;5065015;28;20017;-60
2022/04/19 08:42:05;;;;;;;5.10;3.20;;;26.90;41.00;;;;;;5067291;28;20422;-62
2022/04/19 08:44:30;;;;;;;5.20;3.67;;;26.40;40.10;;;;;;5060219;28;20514;-61
2022/04/19 08:46:57;;;;;;;4.57;3.38;;;26.30;40.70;;;;;;5071873;28;20056;-57
2022/04/19 08:49:25;;;;;;;4.70;2.80;;;26.30;41.20;;;;;;5063269;28;20126;-61
2022/04/19 08:51:50;;;;;;;7.03;3.50;;;26.80;40.70;;;;;;5069444;28;20042;-60
2022/04/19 08:59:44;;;;;;;4.95;3.47;;;26.60;40.90;;;;;;5074978;28;20035;-59
2022/04/19 09:02:22;;;;;;;4.38;3.45;;;26.60;39.50;;;;;;5055854;28;20041;-61
2022/04/19 09:04:50;;;;;;;4.05;3.50;;;25.60;39.30;;;;;;5071820;28;20040;-59
2022/04/19 09:07:16;;;;;;;6.38;3.50;;;25.30;40.70;;;;;;5072448;28;20394;-59
2022/04/19 09:09:42;;;;;;;5.28;3.53;;;26.40;40.70;;;;;;5080308;28;20035;-62
2022/04/19 09:12:12;;;;;;;4.45;3.40;;;26.20;40.10;;;;;;5062210;28;20107;-59
2022/04/19 09:14:58;;;;;;;6.07;4.25;;;26.10;41.00;;;;;;5065205;28;20029;-59
2022/04/19 09:17:33;;;;;;;7.50;4.18;;;26.30;38.30;;;;;;5069634;28;20035;-61
2022/04/19 09:20:15;;;;;;;4.85;4.00;;;25.80;39.80;;;;;;5070573;28;20044;-60
2022/04/19 09:22:42;;;;;;;5.75;3.92;;;26.40;39.70;;;;;;5064524;28;20079;-62
2022/04/19 09:25:25;;;;;;;9.70;4.63;;;26.30;40.10;;;;;;5068331;28;20434;-58
2022/04/19 09:27:52;;;;;;;5.85;4.45;;;26.10;39.10;;;;;;5075120;28;20190;-61
2022/04/19 09:30:24;;;;;;;8.25;4.70;;;25.40;39.00;;;;;;5087057;28;20074;-59
2022/04/19 09:33:11;;;;;;;7.70;4.25;;;24.60;40.70;;;;;;5064813;28;20029;-59
2022/04/19 09:35:44;;;;;;;5.65;4.55;;;25.20;40.00;;;;;;5070995;28;20111;-63
2022/04/19 09:38:11;;;;;;;5.75;4.35;;;25.30;40.30;;;;;;5061667;28;20511;-58
2022/04/19 09:40:39;;;;;;;6.40;4.15;;;25.40;40.80;;;;;;5051404;28;20036;-59
2022/04/19 09:43:22;;;;;;;5.15;4.32;;;25.10;40.60;;;;;;5058500;28;20025;-56
2022/04/19 09:45:59;;;;;;;5.15;4.10;;;24.90;42.90;;;;;;5051594;28;20021;-58
2022/04/19 09:48:28;;;;;;;6.78;4.47;;;25.80;42.20;;;;;;5066188;28;20063;-56
2022/04/19 09:51:03;;;;;;;6.68;4.30;;;25.30;41.30;;;;;;5070104;28;20028;-59
2022/04/19 09:53:43;;;;;;;6.82;4.95;;;25.70;40.30;;;;;;5042123;28;20032;-57
2022/04/19 09:56:13;;;;;;;5.70;4.53;;;25.40;40.30;;;;;;5067234;28;20028;-59
2022/04/19 09:58:41;;;;;;;6.78;4.10;;;25.50;40.10;;;;;;5058731;28;20560;-57
2022/04/19 10:01:07;;;;;;;7.18;4.28;;;25.40;41.30;;;;;;5066851;28;20047;-59
2022/04/19 10:09:06;;;;;;;6.43;4.72;;;23.60;42.70;;;;;;5068991;28;20071;-59
2022/04/19 10:11:32;;;;;;;8.25;5.13;;;23.30;43.10;;;;;;5052040;28;20040;-59
2022/04/19 10:13:59;;;;;;;7.10;4.68;;;23.40;43.60;;;;;;5055652;28;20033;-56
2022/04/19 10:16:27;;;;;;;10.68;5.50;;;23.30;43.80;;;;;;5069219;28;20116;-60
2022/04/19 10:18:53;;;;;;;9.63;5.50;;;23.10;45.00;;;;;;5083985;28;20591;-58
2022/04/19 10:21:28;;;;;;;7.63;5.25;;;22.70;44.10;;;;;;5069823;28;20056;-59
2022/04/19 10:24:10;;;;;;;6.85;5.07;;;22.20;45.20;;;;;;5056621;28;20029;-59
2022/04/19 10:26:43;;;;;;;8.00;5.68;;;22.20;45.90;;;;;;5068743;28;20020;-58
2022/04/19 10:29:29;;;;;;;5.83;5.07;;;21.80;47.00;;;;;;5061171;28;20502;-56
2022/04/19 10:32:02;;;;;;;6.47;5.03;;;21.70;47.00;;;;;;5060316;28;20039;-58
2022/04/19 10:34:35;;;;;;;6.33;4.10;;;22.10;46.30;;;;;;5051801;28;20104;-57
2022/04/19 10:37:26;;;;;;;6.75;3.95;;;22.30;45.80;;;;;;5069599;28;20079;-57
2022/04/19 10:39:58;;;;;;;11.77;4.32;;;22.20;45.20;;;;;;5056460;28;20039;-58
2022/04/19 10:42:36;;;;;;;5.38;3.90;;;22.00;45.00;;;;;;5061701;28;20060;-57
2022/04/19 10:45:14;;;;;;;9.95;4.55;;;22.00;44.00;;;;;;5053352;28;20025;-58
2022/04/19 10:47:51;;;;;;;6.47;3.88;;;21.80;44.20;;;;;;5050293;28;20032;-58
2022/04/19 10:50:39;;;;;;;4.95;3.50;;;21.60;46.80;;;;;;5070403;28;20130;-60
2022/04/19 10:53:09;;;;;;;5.40;3.78;;;21.90;45.10;;;;;;5060876;28;20029;-60
2022/04/19 10:55:57;;;;;;;6.32;4.63;;;21.90;45.70;;;;;;5050632;28;20652;-59
2022/04/19 10:58:41;;;;;;;6.90;4.35;;;21.60;43.00;;;;;;5055140;28;20032;-59
2022/04/19 11:01:26;;;;;;;4.70;3.40;;;21.00;44.10;;;;;;5050367;28;20541;-59
2022/04/19 11:03:52;;;;;;;7.13;3.58;;;21.00;44.90;;;;;;5055672;28;20052;-58
2022/04/19 11:06:40;;;;;;;4.85;3.50;;;20.70;43.70;;;;;;5071721;28;20025;-59
2022/04/19 11:09:27;;;;;;;4.38;2.97;;;20.70;43.80;;;;;;5068610;28;20031;-58
2022/04/19 11:11:56;;;;;;;8.32;3.70;;;20.70;44.30;;;;;;5053041;28;20119;-60
2022/04/19 11:14:40;;;;;;;5.13;3.63;;;20.80;44.00;;;;;;5063202;28;20607;-60
2022/04/19 11:17:23;;;;;;;10.48;4.20;;;20.70;43.80;;;;;;5075336;28;20027;-57
2022/04/19 11:20:16;;;;;;;6.10;3.95;;;20.70;44.20;;;;;;5075140;28;20036;-60
2022/04/19 11:22:51;;;;;;;6.18;3.67;;;20.50;44.10;;;;;;5071452;28;20631;-59
2022/04/19 11:25:36;;;;;;;7.28;3.50;;;20.20;44.60;;;;;;5084746;28;20107;-55
2022/04/19 11:28:02;;;;;;;6.25;4.00;;;20.10;45.20;;;;;;5069635;28;20482;-59
2022/04/19 11:30:28;;;;;;;4.93;3.03;;;20.00;45.20;;;;;;5066872;28;20028;-61
2022/04/19 11:32:56;;;;;;;8.55;4.28;;;20.20;45.70;;;;;;5052265;28;20510;-59
2022/04/19 11:35:22;;;;;;;8.85;3.83;;;20.30;44.30;;;;;;5063904;28;20107;-57
2022/04/19 11:37:48;;;;;;;5.03;3.53;;;20.10;44.10;;;;;;5068302;28;20484;-60
2022/04/19 11:48:47;;;;;;;3.67;2.92;;;20.00;47.00;;;;;;5062479;28;20028;-60
2022/04/19 11:51:15;;;;;;;7.57;3.22;;;20.00;45.50;;;;;;5054823;28;20086;-60
2022/04/19 11:53:41;;;;;;;3.38;2.78;;;20.10;43.70;;;;;;5067388;28;20024;-58
2022/04/19 11:56:07;;;;;;;4.18;3.05;;;20.00;43.70;;;;;;5079214;22;20093;-59
2022/04/19 11:58:33;;;;;;;5.60;2.70;;;19.90;43.90;;;;;;5062631;28;20017;-59
2022/04/19 12:01:10;;;;;;;5.03;3.60;;;19.80;43.50;;;;;;5067727;28;20128;-60
2022/04/19 12:03:38;;;;;;;5.53;4.20;;;19.70;46.40;;;;;;5053967;28;20067;-60
2022/04/19 12:06:18;;;;;;;4.18;3.28;;;19.70;45.50;;;;;;5071672;28;20029;-59
2022/04/19 12:08:51;;;;;;;4.25;2.78;;;19.80;44.30;;;;;;5056266;28;20540;-60
2022/04/19 12:11:28;;;;;;;2.83;2.53;;;19.80;44.00;;;;;;5054221;28;20476;-60
2022/04/19 12:13:54;;;;;;;13.13;3.30;;;19.80;45.30;;;;;;5063316;28;20028;-59
2022/04/19 12:16:34;;;;;;;6.22;3.80;;;19.60;45.20;;;;;;5054497;28;20021;-60
2022/04/19 12:19:02;;;;;;;4.57;3.22;;;19.70;47.20;;;;;;5052586;28;20040;-61
2022/04/19 12:21:44;;;;;;;4.93;3.78;;;19.70;44.90;;;;;;5052429;28;20017;-60
2022/04/19 12:24:24;;;;;;;4.93;3.10;;;19.80;44.70;;;;;;5057219;28;20512;-61
2022/04/19 12:27:08;;;;;;;5.47;3.35;;;19.80;44.10;;;;;;5057039;28;20104;-61
2022/04/19 12:29:35;;;;;;;4.32;2.92;;;19.80;44.90;;;;;;5050564;28;20056;-61
2022/04/19 12:32:03;;;;;;;4.90;2.80;;;19.90;44.90;;;;;;5053572;28;20044;-60
2022/04/19 12:34:37;;;;;;;2.85;2.40;;;19.80;43.80;;;;;;5051146;28;20047;-60
2022/04/19 12:37:07;;;;;;;4.20;3.17;;;19.60;43.10;;;;;;5035761;28;20319;-60
2022/04/19 12:39:33;;;;;;;4.25;3.33;;;19.50;43.50;;;;;;5059391;28;20017;-61
2022/04/19 12:42:11;;;;;;;4.80;2.88;;;19.40;44.00;;;;;;5060591;28;20037;-61
2022/04/19 12:44:39;;;;;;;3.83;2.28;;;19.40;44.30;;;;;;5057356;28;20024;-61
2022/04/19 12:47:14;;;;;;;3.20;2.42;;;19.30;45.00;;;;;;5056226;28;20028;-61
2022/04/19 12:49:45;;;;;;;2.97;2.15;;;19.40;44.90;;;;;;5048790;28;20025;-59
2022/04/19 12:52:12;;;;;;;2.72;2.22;;;19.40;43.40;;;;;;5049581;28;20365;-60
2022/04/19 12:54:39;;;;;;;3.35;2.00;;;19.50;44.80;;;;;;5049210;28;20100;-61
2022/04/19 13:04:42;;;;;;;3.03;2.58;;;19.80;45.40;;;;;;5033620;28;20099;-59
2022/04/19 13:12:36;;;;;;;2.83;1.98;;;19.50;45.80;;;;;;5050564;28;20035;-60
2022/04/19 13:15:06;;;;;;;7.95;2.08;;;19.50;44.90;;;;;;5051078;28;20037;-58
2022/04/19 13:17:34;;;;;;;5.57;2.25;;;19.40;45.80;;;;;;5048692;28;20029;-60
2022/04/19 13:20:01;;;;;;;3.53;2.20;;;19.40;46.60;;;;;;5049974;28;20025;-60
2022/04/19 13:22:27;;;;;;;3.33;1.85;;;19.50;46.30;;;;;;5048504;28;20023;-60
2022/04/19 13:24:53;;;;;;;2.67;1.77;;;19.40;45.00;;;;;;5051126;28;20025;-60
2022/04/19 13:27:18;;;;;;;3.42;1.90;;;19.40;45.20;;;;;;5039726;28;20025;-60
2022/04/19 13:29:44;;;;;;;2.60;1.58;;;19.40;45.60;;;;;;5050474;28;20511;-59
2022/04/19 13:32:14;;;;;;;2.20;2.00;;;19.50;46.10;;;;;;5054457;28;20625;-58
2022/04/19 13:34:40;;;;;;;3.92;2.55;;;19.50;45.70;;;;;;5049415;28;20040;-59
2022/04/19 13:37:06;;;;;;;3.08;2.03;;;19.50;46.50;;;;;;5056216;28;20024;-59
2022/04/19 13:39:32;;;;;;;4.30;1.98;;;19.50;46.60;;;;;;5057074;28;20403;-60
2022/04/19 13:41:57;;;;;;;7.10;1.80;;;19.50;47.70;;;;;;5055721;28;20387;-58
2022/04/19 13:44:23;;;;;;;4.03;1.70;;;19.40;45.90;;;;;;5059650;28;20111;-60
2022/04/19 13:46:49;;;;;;;6.65;1.90;;;19.60;48.30;;;;;;5052121;28;20071;-60
2022/04/19 13:49:16;;;;;;;2.92;1.70;;;19.60;47.50;;;;;;5049946;28;20482;-59
2022/04/19 13:51:42;;;;;;;2.58;1.95;;;19.60;49.90;;;;;;5050038;28;20502;-59
2022/04/19 13:54:15;;;;;;;2.15;1.75;;;19.60;49.30;;;;;;5050134;28;20020;-60
2022/04/19 13:56:42;;;;;;;2.40;1.77;;;19.50;47.70;;;;;;5049496;28;20037;-60